EZY745F EGGW-EGPF
Flight info
| Callsign | EZY745F |
|---|---|
| Flight time | 0h 53m |
| Altitude | 34000 |
| Route | OLNEY T420 TNT UN57 POL UN601 RIBEL DCT ASLIB |
| Aircraft | A320/M-SDE3FGHIRWY/LB1 |
Departure
| Time | 2026-05-07 20:37 |
|---|---|
| Airport | London Luton Airport (EGGW) |
Arrival
| Time | 2026-05-07 21:31 |
|---|---|
| Airport | Glasgow Airport (EGPF) |
| Time | Latitude | Longitude | Altitude | Speed | Heading |
|---|---|---|---|---|---|
| 2026-05-07 20:02 | 51.88081 | -0.37745 | 496 ft | 0 kts | 129° |
| 2026-05-07 20:28 | 51.88086 | -0.37754 | 523 ft | 2 kts | 129° |
| 2026-05-07 20:29 | 51.88096 | -0.37774 | 523 ft | 2 kts | 135° |
| 2026-05-07 20:29 | 51.88109 | -0.37792 | 523 ft | 2 kts | 153° |
| 2026-05-07 20:29 | 51.88124 | -0.37795 | 523 ft | 2 kts | 228° |
| 2026-05-07 20:29 | 51.88135 | -0.37775 | 523 ft | 2 kts | 229° |
| 2026-05-07 20:30 | 51.88143 | -0.37760 | 523 ft | 1 kts | 232° |
| 2026-05-07 20:30 | 51.88143 | -0.37759 | 523 ft | 0 kts | 232° |
| 2026-05-07 20:31 | 51.88143 | -0.37761 | 523 ft | 1 kts | 232° |
| 2026-05-07 20:32 | 51.88120 | -0.37801 | 523 ft | 8 kts | 225° |
| 2026-05-07 20:32 | 51.88059 | -0.37883 | 523 ft | 14 kts | 219° |
| 2026-05-07 20:32 | 51.87965 | -0.37994 | 523 ft | 19 kts | 206° |
| 2026-05-07 20:32 | 51.87832 | -0.37970 | 523 ft | 20 kts | 138° |
| 2026-05-07 20:33 | 51.87765 | -0.37786 | 523 ft | 19 kts | 118° |
| 2026-05-07 20:33 | 51.87702 | -0.37584 | 519 ft | 21 kts | 115° |
| 2026-05-07 20:33 | 51.87607 | -0.37460 | 523 ft | 17 kts | 174° |
| 2026-05-07 20:33 | 51.87504 | -0.37532 | 522 ft | 17 kts | 249° |
| 2026-05-07 20:34 | 51.87475 | -0.37701 | 523 ft | 15 kts | 255° |
| 2026-05-07 20:34 | 51.87449 | -0.37852 | 522 ft | 13 kts | 254° |
| 2026-05-07 20:34 | 51.87425 | -0.37978 | 524 ft | 10 kts | 248° |
| 2026-05-07 20:34 | 51.87372 | -0.38060 | 523 ft | 15 kts | 207° |
| 2026-05-07 20:35 | 51.87258 | -0.38099 | 523 ft | 15 kts | 146° |
| 2026-05-07 20:35 | 51.87253 | -0.38055 | 524 ft | 0 kts | 73° |
| 2026-05-07 20:36 | 51.87255 | -0.38039 | 524 ft | 9 kts | 74° |
| 2026-05-07 20:37 | 51.87346 | -0.37522 | 521 ft | 86 kts | 74° |
| 2026-05-07 20:37 | 51.87566 | -0.36239 | 522 ft | 145 kts | 74° |
| 2026-05-07 20:37 | 51.87848 | -0.34548 | 1002 ft | 156 kts | 76° |
| 2026-05-07 20:37 | 51.88140 | -0.32851 | 1770 ft | 156 kts | 78° |
| 2026-05-07 20:38 | 51.88458 | -0.31076 | 2277 ft | 174 kts | 77° |
| 2026-05-07 20:38 | 51.88813 | -0.29098 | 2665 ft | 196 kts | 76° |
| 2026-05-07 20:38 | 51.89411 | -0.27088 | 3045 ft | 216 kts | 46° |
| 2026-05-07 20:38 | 51.90809 | -0.25986 | 3417 ft | 240 kts | 4° |
| 2026-05-07 20:39 | 51.92477 | -0.26602 | 3814 ft | 260 kts | 325° |
| 2026-05-07 20:39 | 51.93633 | -0.28846 | 4489 ft | 265 kts | 288° |
| 2026-05-07 20:39 | 51.93828 | -0.31790 | 5368 ft | 265 kts | 263° |
| 2026-05-07 20:39 | 51.93518 | -0.34740 | 6272 ft | 267 kts | 257° |
| 2026-05-07 20:40 | 51.93147 | -0.37727 | 6866 ft | 273 kts | 264° |
| 2026-05-07 20:40 | 51.93454 | -0.40717 | 7244 ft | 275 kts | 298° |
| 2026-05-07 20:40 | 51.94650 | -0.43162 | 8112 ft | 278 kts | 313° |
| 2026-05-07 20:40 | 51.96000 | -0.45412 | 8973 ft | 281 kts | 313° |
| 2026-05-07 20:41 | 51.97355 | -0.47656 | 9813 ft | 284 kts | 313° |
| 2026-05-07 20:41 | 51.98758 | -0.49977 | 10411 ft | 296 kts | 313° |
| 2026-05-07 20:41 | 52.00249 | -0.52451 | 10736 ft | 315 kts | 312° |
| 2026-05-07 20:41 | 52.01801 | -0.55035 | 11369 ft | 323 kts | 313° |
| 2026-05-07 20:42 | 52.03387 | -0.57674 | 11890 ft | 329 kts | 312° |
| 2026-05-07 20:42 | 52.04984 | -0.60336 | 12035 ft | 329 kts | 312° |
| 2026-05-07 20:42 | 52.06594 | -0.63023 | 12538 ft | 333 kts | 312° |
| 2026-05-07 20:42 | 52.08223 | -0.65749 | 13316 ft | 337 kts | 312° |
| 2026-05-07 20:43 | 52.09866 | -0.68504 | 14008 ft | 341 kts | 312° |
| 2026-05-07 20:43 | 52.11526 | -0.71292 | 14653 ft | 344 kts | 312° |
| 2026-05-07 20:43 | 52.13326 | -0.73887 | 15295 ft | 349 kts | 322° |
| 2026-05-07 20:43 | 52.15387 | -0.75999 | 15938 ft | 353 kts | 327° |
| 2026-05-07 20:44 | 52.17496 | -0.78074 | 16585 ft | 355 kts | 327° |
| 2026-05-07 20:44 | 52.19621 | -0.80174 | 17225 ft | 358 kts | 326° |
| 2026-05-07 20:44 | 52.21761 | -0.82294 | 17880 ft | 361 kts | 326° |
| 2026-05-07 20:44 | 52.23911 | -0.84424 | 18484 ft | 363 kts | 326° |
| 2026-05-07 20:45 | 52.26053 | -0.86547 | 19031 ft | 366 kts | 326° |
| 2026-05-07 20:45 | 52.28241 | -0.88713 | 19589 ft | 368 kts | 326° |
| 2026-05-07 20:45 | 52.30440 | -0.90898 | 20140 ft | 371 kts | 326° |
| 2026-05-07 20:45 | 52.32671 | -0.93123 | 20701 ft | 373 kts | 326° |
| 2026-05-07 20:46 | 52.34892 | -0.95340 | 21241 ft | 375 kts | 326° |
| 2026-05-07 20:46 | 52.37103 | -0.97546 | 21769 ft | 378 kts | 326° |
| 2026-05-07 20:46 | 52.39357 | -0.99796 | 22284 ft | 380 kts | 326° |
| 2026-05-07 20:46 | 52.41595 | -1.02034 | 22760 ft | 383 kts | 326° |
| 2026-05-07 20:47 | 52.43910 | -1.04351 | 23253 ft | 386 kts | 326° |
| 2026-05-07 20:47 | 52.46215 | -1.06657 | 23724 ft | 388 kts | 326° |
| 2026-05-07 20:47 | 52.48507 | -1.08950 | 24136 ft | 390 kts | 326° |
| 2026-05-07 20:47 | 52.50832 | -1.11282 | 24552 ft | 393 kts | 326° |
| 2026-05-07 20:48 | 52.53170 | -1.13638 | 24979 ft | 394 kts | 326° |
| 2026-05-07 20:48 | 52.55511 | -1.16005 | 25396 ft | 396 kts | 325° |
| 2026-05-07 20:48 | 52.57865 | -1.18388 | 25800 ft | 398 kts | 325° |
| 2026-05-07 20:48 | 52.60229 | -1.20775 | 26190 ft | 400 kts | 326° |
| 2026-05-07 20:49 | 52.62577 | -1.23145 | 26572 ft | 402 kts | 326° |
| 2026-05-07 20:49 | 52.64974 | -1.25566 | 26955 ft | 404 kts | 325° |
| 2026-05-07 20:49 | 52.67377 | -1.27999 | 27334 ft | 406 kts | 325° |
| 2026-05-07 20:49 | 52.69785 | -1.30438 | 27709 ft | 408 kts | 325° |
| 2026-05-07 20:50 | 52.72223 | -1.32912 | 28087 ft | 410 kts | 325° |
| 2026-05-07 20:50 | 52.74631 | -1.35361 | 28484 ft | 412 kts | 325° |
| 2026-05-07 20:50 | 52.77078 | -1.37857 | 28848 ft | 414 kts | 325° |
| 2026-05-07 20:50 | 52.79536 | -1.40371 | 29194 ft | 416 kts | 325° |
| 2026-05-07 20:51 | 52.82007 | -1.42903 | 29540 ft | 418 kts | 325° |
| 2026-05-07 20:51 | 52.84486 | -1.45449 | 29896 ft | 420 kts | 325° |
| 2026-05-07 20:51 | 52.86981 | -1.48014 | 30212 ft | 422 kts | 325° |
| 2026-05-07 20:51 | 52.89453 | -1.50557 | 30484 ft | 424 kts | 325° |
| 2026-05-07 20:52 | 52.91976 | -1.53150 | 30762 ft | 427 kts | 325° |
| 2026-05-07 20:52 | 52.94507 | -1.55751 | 31028 ft | 429 kts | 325° |
| 2026-05-07 20:52 | 52.97034 | -1.58351 | 31294 ft | 431 kts | 325° |
| 2026-05-07 20:52 | 52.99584 | -1.60981 | 31549 ft | 432 kts | 325° |
| 2026-05-07 20:53 | 53.02150 | -1.63639 | 31872 ft | 433 kts | 325° |
| 2026-05-07 20:53 | 53.04716 | -1.66241 | 32236 ft | 433 kts | 329° |
| 2026-05-07 20:53 | 53.07488 | -1.68319 | 32598 ft | 436 kts | 337° |
| 2026-05-07 20:53 | 53.10296 | -1.70037 | 32945 ft | 435 kts | 337° |
| 2026-05-07 20:54 | 53.13130 | -1.71777 | 33311 ft | 434 kts | 336° |
| 2026-05-07 20:54 | 53.15961 | -1.73526 | 33678 ft | 433 kts | 336° |
| 2026-05-07 20:54 | 53.18791 | -1.75284 | 34029 ft | 433 kts | 336° |
| 2026-05-07 20:54 | 53.21612 | -1.77041 | 34323 ft | 432 kts | 336° |
| 2026-05-07 20:55 | 53.24427 | -1.78799 | 34583 ft | 433 kts | 336° |
| 2026-05-07 20:55 | 53.26296 | -1.79966 | 34709 ft | 434 kts | 336° |
| 2026-05-07 20:55 | 53.29147 | -1.81746 | 34917 ft | 435 kts | 337° |
| 2026-05-07 20:55 | 53.32914 | -1.84096 | 35226 ft | 436 kts | 337° |
| 2026-05-07 20:56 | 53.35760 | -1.85873 | 35449 ft | 436 kts | 337° |
| 2026-05-07 20:56 | 53.37647 | -1.87054 | 35595 ft | 436 kts | 336° |
| 2026-05-07 20:56 | 53.40500 | -1.88848 | 35820 ft | 437 kts | 336° |
| 2026-05-07 20:56 | 53.43352 | -1.90649 | 36005 ft | 438 kts | 336° |
| 2026-05-07 20:57 | 53.46182 | -1.92433 | 36046 ft | 431 kts | 336° |
| 2026-05-07 20:57 | 53.51761 | -1.95944 | 36040 ft | 426 kts | 336° |
| 2026-05-07 20:58 | 53.57275 | -1.99420 | 36043 ft | 425 kts | 336° |
| 2026-05-07 20:58 | 53.62825 | -2.02945 | 36038 ft | 425 kts | 336° |
| 2026-05-07 20:59 | 53.68362 | -2.06476 | 36039 ft | 425 kts | 336° |
| 2026-05-07 20:59 | 53.73854 | -2.09995 | 36049 ft | 425 kts | 336° |
| 2026-05-07 21:00 | 53.79361 | -2.13631 | 36031 ft | 424 kts | 335° |
| 2026-05-07 21:00 | 53.84835 | -2.17403 | 36026 ft | 424 kts | 335° |
| 2026-05-07 21:01 | 53.90310 | -2.21186 | 36026 ft | 424 kts | 335° |
| 2026-05-07 21:01 | 53.95751 | -2.24927 | 36024 ft | 424 kts | 335° |
| 2026-05-07 21:02 | 54.01224 | -2.28721 | 36026 ft | 424 kts | 332° |
| 2026-05-07 21:02 | 54.06408 | -2.33443 | 36015 ft | 422 kts | 328° |
| 2026-05-07 21:03 | 54.11569 | -2.38276 | 36014 ft | 423 kts | 328° |
| 2026-05-07 21:03 | 54.16732 | -2.43120 | 36014 ft | 423 kts | 328° |
| 2026-05-07 21:04 | 54.21856 | -2.47945 | 36014 ft | 423 kts | 328° |
| 2026-05-07 21:04 | 54.27038 | -2.52840 | 35873 ft | 432 kts | 328° |
| 2026-05-07 21:04 | 54.29683 | -2.55350 | 35617 ft | 436 kts | 328° |
| 2026-05-07 21:05 | 54.32334 | -2.57863 | 35370 ft | 435 kts | 328° |
| 2026-05-07 21:05 | 54.34978 | -2.60374 | 35121 ft | 434 kts | 328° |
| 2026-05-07 21:05 | 54.37610 | -2.62877 | 34800 ft | 430 kts | 328° |
| 2026-05-07 21:05 | 54.40223 | -2.65366 | 34302 ft | 428 kts | 328° |
| 2026-05-07 21:06 | 54.42828 | -2.67853 | 33750 ft | 426 kts | 328° |
| 2026-05-07 21:06 | 54.45410 | -2.70319 | 33235 ft | 423 kts | 328° |
| 2026-05-07 21:06 | 54.47946 | -2.72744 | 32730 ft | 420 kts | 328° |
| 2026-05-07 21:06 | 54.50492 | -2.75182 | 32237 ft | 417 kts | 327° |
| 2026-05-07 21:07 | 54.53014 | -2.77602 | 31756 ft | 414 kts | 327° |
| 2026-05-07 21:07 | 54.55517 | -2.80007 | 31269 ft | 411 kts | 327° |
| 2026-05-07 21:07 | 54.58003 | -2.82396 | 30791 ft | 407 kts | 327° |
| 2026-05-07 21:07 | 54.60468 | -2.84770 | 30329 ft | 405 kts | 327° |
| 2026-05-07 21:08 | 54.62915 | -2.87132 | 29838 ft | 402 kts | 327° |
| 2026-05-07 21:08 | 54.65345 | -2.89476 | 29381 ft | 397 kts | 327° |
| 2026-05-07 21:08 | 54.67737 | -2.91787 | 28549 ft | 402 kts | 327° |
| 2026-05-07 21:08 | 54.70159 | -2.94132 | 28128 ft | 396 kts | 327° |
| 2026-05-07 21:09 | 54.72551 | -2.96449 | 27713 ft | 391 kts | 327° |
| 2026-05-07 21:09 | 54.74912 | -2.98745 | 27270 ft | 387 kts | 327° |
| 2026-05-07 21:09 | 54.77254 | -3.01028 | 26827 ft | 383 kts | 327° |
| 2026-05-07 21:09 | 54.79569 | -3.03284 | 26393 ft | 380 kts | 327° |
| 2026-05-07 21:10 | 54.81866 | -3.05525 | 25950 ft | 377 kts | 327° |
| 2026-05-07 21:10 | 54.84149 | -3.07720 | 25516 ft | 374 kts | 328° |
| 2026-05-07 21:10 | 54.86453 | -3.09822 | 25061 ft | 372 kts | 329° |
| 2026-05-07 21:10 | 54.88728 | -3.11827 | 24609 ft | 371 kts | 329° |
| 2026-05-07 21:11 | 54.91027 | -3.13834 | 24161 ft | 369 kts | 329° |
| 2026-05-07 21:11 | 54.93317 | -3.15842 | 23696 ft | 367 kts | 329° |
| 2026-05-07 21:11 | 54.97846 | -3.19876 | 22747 ft | 363 kts | 329° |
| 2026-05-07 21:12 | 55.00083 | -3.21888 | 22295 ft | 360 kts | 329° |
| 2026-05-07 21:12 | 55.02301 | -3.23889 | 21860 ft | 358 kts | 329° |
| 2026-05-07 21:12 | 55.04504 | -3.25883 | 21431 ft | 356 kts | 329° |
| 2026-05-07 21:12 | 55.06694 | -3.27869 | 21004 ft | 354 kts | 328° |
| 2026-05-07 21:13 | 55.08871 | -3.29846 | 20586 ft | 352 kts | 328° |
| 2026-05-07 21:13 | 55.11046 | -3.31819 | 20162 ft | 351 kts | 328° |
| 2026-05-07 21:13 | 55.13209 | -3.33775 | 19741 ft | 349 kts | 328° |
| 2026-05-07 21:13 | 55.15294 | -3.35662 | 19336 ft | 348 kts | 328° |
| 2026-05-07 21:14 | 55.17451 | -3.37624 | 18927 ft | 347 kts | 328° |
| 2026-05-07 21:14 | 55.19566 | -3.39555 | 18520 ft | 347 kts | 328° |
| 2026-05-07 21:14 | 55.21702 | -3.41506 | 18090 ft | 346 kts | 328° |
| 2026-05-07 21:14 | 55.23837 | -3.43451 | 17656 ft | 345 kts | 328° |
| 2026-05-07 21:15 | 55.25962 | -3.45389 | 17260 ft | 342 kts | 328° |
| 2026-05-07 21:15 | 55.28069 | -3.47316 | 16873 ft | 340 kts | 328° |
| 2026-05-07 21:15 | 55.30162 | -3.49228 | 16470 ft | 338 kts | 328° |
| 2026-05-07 21:15 | 55.32249 | -3.51142 | 16079 ft | 337 kts | 328° |
| 2026-05-07 21:16 | 55.34309 | -3.53037 | 15697 ft | 336 kts | 328° |
| 2026-05-07 21:16 | 55.36369 | -3.54935 | 15312 ft | 335 kts | 328° |
| 2026-05-07 21:16 | 55.38426 | -3.56833 | 14926 ft | 333 kts | 328° |
| 2026-05-07 21:16 | 55.40478 | -3.58725 | 14548 ft | 332 kts | 328° |
| 2026-05-07 21:17 | 55.42520 | -3.60610 | 14170 ft | 331 kts | 328° |
| 2026-05-07 21:17 | 55.44561 | -3.62497 | 13782 ft | 330 kts | 328° |
| 2026-05-07 21:17 | 55.46592 | -3.64373 | 13375 ft | 329 kts | 328° |
| 2026-05-07 21:17 | 55.48614 | -3.66243 | 12996 ft | 327 kts | 328° |
| 2026-05-07 21:18 | 55.50627 | -3.68105 | 12608 ft | 325 kts | 328° |
| 2026-05-07 21:18 | 55.52624 | -3.69955 | 12218 ft | 323 kts | 328° |
| 2026-05-07 21:18 | 55.54605 | -3.71797 | 11836 ft | 321 kts | 328° |
| 2026-05-07 21:18 | 55.56577 | -3.73631 | 11462 ft | 317 kts | 328° |
| 2026-05-07 21:19 | 55.58511 | -3.75430 | 11062 ft | 310 kts | 328° |
| 2026-05-07 21:19 | 55.60374 | -3.77167 | 10698 ft | 305 kts | 328° |
| 2026-05-07 21:19 | 55.62254 | -3.78921 | 10301 ft | 305 kts | 328° |
| 2026-05-07 21:19 | 55.64126 | -3.80672 | 9912 ft | 304 kts | 328° |
| 2026-05-07 21:20 | 55.65972 | -3.82403 | 9729 ft | 295 kts | 328° |
| 2026-05-07 21:20 | 55.67775 | -3.84093 | 9282 ft | 291 kts | 328° |
| 2026-05-07 21:20 | 55.69572 | -3.85778 | 8879 ft | 291 kts | 328° |
| 2026-05-07 21:20 | 55.71366 | -3.87457 | 8457 ft | 291 kts | 328° |
| 2026-05-07 21:21 | 55.73141 | -3.89122 | 8159 ft | 287 kts | 328° |
| 2026-05-07 21:21 | 55.74908 | -3.90786 | 7737 ft | 287 kts | 328° |
| 2026-05-07 21:21 | 55.76669 | -3.92446 | 7342 ft | 286 kts | 328° |
| 2026-05-07 21:21 | 55.78427 | -3.94104 | 6959 ft | 285 kts | 328° |
| 2026-05-07 21:22 | 55.80178 | -3.95756 | 6560 ft | 284 kts | 328° |
| 2026-05-07 21:22 | 55.81922 | -3.97398 | 6153 ft | 283 kts | 328° |
| 2026-05-07 21:22 | 55.83653 | -3.99032 | 5763 ft | 281 kts | 328° |
| 2026-05-07 21:22 | 55.85357 | -4.00639 | 5366 ft | 279 kts | 328° |
| 2026-05-07 21:23 | 55.87065 | -4.02252 | 4940 ft | 277 kts | 328° |
| 2026-05-07 21:23 | 55.88767 | -4.03864 | 4492 ft | 275 kts | 328° |
| 2026-05-07 21:23 | 55.90449 | -4.05457 | 3843 ft | 273 kts | 328° |
| 2026-05-07 21:23 | 55.92099 | -4.07019 | 3478 ft | 259 kts | 327° |
| 2026-05-07 21:24 | 55.93615 | -4.08449 | 3396 ft | 235 kts | 327° |
| 2026-05-07 21:24 | 55.94997 | -4.09756 | 3316 ft | 216 kts | 326° |
| 2026-05-07 21:24 | 55.96271 | -4.10968 | 3222 ft | 202 kts | 325° |
| 2026-05-07 21:24 | 55.97491 | -4.12138 | 3142 ft | 196 kts | 325° |
| 2026-05-07 21:25 | 55.98678 | -4.13276 | 3037 ft | 193 kts | 324° |
| 2026-05-07 21:25 | 55.99668 | -4.14754 | 2988 ft | 180 kts | 296° |
| 2026-05-07 21:25 | 56.00103 | -4.16750 | 2995 ft | 168 kts | 269° |
| 2026-05-07 21:25 | 55.99999 | -4.18664 | 3012 ft | 146 kts | 246° |
| 2026-05-07 21:26 | 55.99527 | -4.20143 | 2977 ft | 129 kts | 225° |
| 2026-05-07 21:26 | 55.98906 | -4.21311 | 3006 ft | 131 kts | 225° |
| 2026-05-07 21:26 | 55.98294 | -4.22468 | 2967 ft | 127 kts | 225° |
| 2026-05-07 21:26 | 55.97688 | -4.23613 | 2869 ft | 126 kts | 225° |
| 2026-05-07 21:27 | 55.97096 | -4.24729 | 2737 ft | 125 kts | 225° |
| 2026-05-07 21:27 | 55.96490 | -4.25871 | 2579 ft | 124 kts | 225° |
| 2026-05-07 21:27 | 55.95891 | -4.26999 | 2442 ft | 129 kts | 224° |
| 2026-05-07 21:27 | 55.95269 | -4.28170 | 2242 ft | 126 kts | 224° |
| 2026-05-07 21:28 | 55.94688 | -4.29265 | 2072 ft | 120 kts | 225° |
| 2026-05-07 21:28 | 55.94121 | -4.30332 | 1916 ft | 118 kts | 224° |
| 2026-05-07 21:28 | 55.93552 | -4.31400 | 1755 ft | 117 kts | 224° |
| 2026-05-07 21:28 | 55.92997 | -4.32443 | 1586 ft | 118 kts | 224° |
| 2026-05-07 21:29 | 55.92426 | -4.33514 | 1431 ft | 119 kts | 224° |
| 2026-05-07 21:29 | 55.91848 | -4.34605 | 1217 ft | 123 kts | 223° |
| 2026-05-07 21:29 | 55.91260 | -4.35721 | 1084 ft | 123 kts | 225° |
| 2026-05-07 21:29 | 55.90654 | -4.36848 | 879 ft | 129 kts | 224° |
| 2026-05-07 21:30 | 55.90036 | -4.38009 | 703 ft | 128 kts | 223° |
| 2026-05-07 21:30 | 55.89418 | -4.39174 | 514 ft | 131 kts | 223° |
| 2026-05-07 21:30 | 55.88791 | -4.40339 | 366 ft | 131 kts | 222° |
| 2026-05-07 21:30 | 55.88148 | -4.41543 | 159 ft | 134 kts | 222° |
| 2026-05-07 21:31 | 55.87510 | -4.42732 | 32 ft | 124 kts | 226° |
| 2026-05-07 21:31 | 55.87028 | -4.43635 | 35 ft | 75 kts | 227° |
| 2026-05-07 21:31 | 55.86785 | -4.44090 | 31 ft | 26 kts | 226° |
| 2026-05-07 21:31 | 55.86682 | -4.44264 | 33 ft | 19 kts | 201° |
| 2026-05-07 21:32 | 55.86621 | -4.44120 | 29 ft | 20 kts | 93° |
| 2026-05-07 21:32 | 55.86629 | -4.43946 | 29 ft | 8 kts | 60° |
| 2026-05-07 21:32 | 55.86670 | -4.43868 | 28 ft | 9 kts | 49° |
| 2026-05-07 21:32 | 55.86712 | -4.43784 | 27 ft | 9 kts | 48° |
| 2026-05-07 21:33 | 55.86735 | -4.43716 | 28 ft | 4 kts | 70° |
| 2026-05-07 21:33 | 55.86740 | -4.43680 | 29 ft | 4 kts | 82° |
| 2026-05-07 21:33 | 55.86683 | -4.43595 | 29 ft | 15 kts | 163° |
| 2026-05-07 21:33 | 55.86573 | -4.43539 | 29 ft | 17 kts | 163° |
| 2026-05-07 21:34 | 55.86527 | -4.43458 | 30 ft | 9 kts | 67° |
| 2026-05-07 21:34 | 55.86537 | -4.43406 | 31 ft | 0 kts | 76° |